createdAt,value
2023-02-18T00:01:00.683Z,2.00
2023-02-18T00:03:30.206Z,1.98
2023-02-18T00:05:58.389Z,2.03
2023-02-18T00:08:26.332Z,1.80
2023-02-18T00:10:54.269Z,2.25
2023-02-18T00:13:22.193Z,2.00
2023-02-18T00:15:51.558Z,1.95
2023-02-18T00:18:19.455Z,1.80
2023-02-18T00:20:47.404Z,1.60
2023-02-18T00:23:15.346Z,1.70
2023-02-18T00:25:43.263Z,1.83
2023-02-18T00:28:11.214Z,1.77
2023-02-18T00:30:41.736Z,2.10
2023-02-18T00:33:11.263Z,1.83
2023-02-18T00:35:39.264Z,1.80
2023-02-18T00:38:07.497Z,1.40
2023-02-18T00:40:38.712Z,1.70
2023-02-18T00:43:06.766Z,1.40
2023-02-18T00:45:35.247Z,1.70
2023-02-18T00:48:03.225Z,1.80
2023-02-18T00:50:34.742Z,1.50
2023-02-18T00:53:02.665Z,1.38
2023-02-18T00:55:31.967Z,1.40
2023-02-18T00:57:59.990Z,1.63
2023-02-18T01:00:27.913Z,1.30
2023-02-18T01:02:56.092Z,1.52
2023-02-18T01:05:24.055Z,1.60
2023-02-18T01:07:53.298Z,1.70
2023-02-18T01:10:21.880Z,1.52
2023-02-18T01:12:49.826Z,1.65
2023-02-18T01:15:18.808Z,2.10
2023-02-18T01:17:46.917Z,1.98
2023-02-18T01:20:16.046Z,1.88
2023-02-18T01:22:43.959Z,2.08
2023-02-18T01:25:13.682Z,1.70
2023-02-18T01:27:41.787Z,1.92
2023-02-18T01:30:13.746Z,2.25
2023-02-18T01:32:41.743Z,1.90
2023-02-18T01:35:14.083Z,1.67
2023-02-18T01:37:42.096Z,2.17
2023-02-18T01:40:14.463Z,2.03
2023-02-18T01:42:42.598Z,2.40
2023-02-18T01:45:43.699Z,1.95
2023-02-18T01:48:14.942Z,1.73
2023-02-18T01:50:46.416Z,1.88
2023-02-18T01:53:17.741Z,1.88
2023-02-18T01:55:48.678Z,1.70
2023-02-18T01:58:17.607Z,1.80
2023-02-18T02:00:47.193Z,1.75
2023-02-18T02:03:16.040Z,1.75
2023-02-18T02:05:44.906Z,2.15
2023-02-18T02:08:17.793Z,1.60
2023-02-18T02:11:07.595Z,1.50
2023-02-18T02:13:48.414Z,2.05
2023-02-18T02:16:27.399Z,1.63
2023-02-18T02:19:06.082Z,1.48
2023-02-18T02:22:03.355Z,1.67
2023-02-18T02:24:48.725Z,1.80
2023-02-18T02:27:24.124Z,1.33
2023-02-18T02:30:24.370Z,1.40
2023-02-18T02:33:30.904Z,1.20
2023-02-18T02:36:04.903Z,1.42
2023-02-18T02:38:40.307Z,1.40
2023-02-18T02:41:18.823Z,1.38
2023-02-18T02:43:57.493Z,1.30
2023-02-18T02:46:32.527Z,1.55
2023-02-18T02:49:08.822Z,1.20
2023-02-18T02:51:42.458Z,1.38
2023-02-18T02:54:14.838Z,1.27
2023-02-18T02:56:42.988Z,1.10
2023-02-18T02:59:16.709Z,1.23
2023-02-18T03:02:06.057Z,1.13
2023-02-18T03:04:54.173Z,0.95
2023-02-18T03:07:39.066Z,1.30
2023-02-18T03:10:26.986Z,1.40
2023-02-18T03:13:03.448Z,0.88
2023-02-18T03:15:40.757Z,1.13
2023-02-18T03:18:16.299Z,1.08
2023-02-18T03:20:51.399Z,0.95
2023-02-18T03:23:24.661Z,1.13
2023-02-18T03:28:23.275Z,1.10
2023-02-18T03:30:53.773Z,0.98
2023-02-18T03:33:27.940Z,1.10
2023-02-18T03:35:57.340Z,0.95
2023-02-18T03:38:32.966Z,1.20
2023-02-18T03:41:00.939Z,1.35
2023-02-18T03:43:30.414Z,1.02
2023-02-18T03:45:58.779Z,1.42
2023-02-18T03:48:27.286Z,1.30
2023-02-18T03:50:55.201Z,1.30
2023-02-18T03:53:23.222Z,1.15
2023-02-18T03:55:53.081Z,1.05
2023-02-18T03:58:20.976Z,1.30
2023-02-18T04:00:49.043Z,1.40
2023-02-18T04:03:16.937Z,1.50
2023-02-18T04:05:44.948Z,1.63
2023-02-18T04:08:12.906Z,1.42
2023-02-18T04:10:40.935Z,1.23
2023-02-18T04:13:10.169Z,1.40
2023-02-18T04:15:38.077Z,1.30
2023-02-18T04:18:06.178Z,1.85
2023-02-18T04:20:34.098Z,1.40
2023-02-18T04:23:02.054Z,1.42
2023-02-18T04:25:30.215Z,1.40
2023-02-18T04:27:58.188Z,1.15
2023-02-18T04:30:27.756Z,1.27
2023-02-18T04:32:55.747Z,1.45
2023-02-18T04:35:23.705Z,1.30
2023-02-18T04:37:51.608Z,1.20
2023-02-18T04:40:19.582Z,1.10
2023-02-18T04:42:47.521Z,1.17
2023-02-18T04:45:15.436Z,1.30
2023-02-18T04:47:44.684Z,1.02
2023-02-18T04:50:12.789Z,1.20
2023-02-18T04:52:40.851Z,1.20
2023-02-18T04:55:09.118Z,1.25
2023-02-18T04:57:37.045Z,1.08
2023-02-18T05:00:06.909Z,1.10
2023-02-18T05:02:35.177Z,1.13
2023-02-18T05:05:04.681Z,0.98
2023-02-18T05:07:32.594Z,0.98
2023-02-18T05:10:00.524Z,1.20
2023-02-18T05:12:28.420Z,1.30
2023-02-18T05:14:56.304Z,0.95
2023-02-18T05:17:24.280Z,1.00
2023-02-18T05:19:52.203Z,1.10
2023-02-18T05:22:21.613Z,0.93
2023-02-18T05:24:49.585Z,0.73
2023-02-18T05:27:17.491Z,0.80
2023-02-18T05:29:45.634Z,0.80
2023-02-18T05:32:13.606Z,0.90
2023-02-18T05:34:41.605Z,0.50
2023-02-18T05:37:09.567Z,0.77
2023-02-18T05:39:38.979Z,0.50
2023-02-18T05:42:06.969Z,0.60
2023-02-18T05:44:34.882Z,0.47
2023-02-18T05:47:05.470Z,0.80
2023-02-18T05:49:34.966Z,0.70
2023-02-18T05:52:03.277Z,0.80
2023-02-18T05:54:31.310Z,0.45
2023-02-18T05:57:00.629Z,0.55
2023-02-18T05:59:28.698Z,0.60
2023-02-18T06:01:56.983Z,0.50
2023-02-18T06:04:25.436Z,1.10
2023-02-18T06:06:53.465Z,0.60
2023-02-18T06:09:21.511Z,0.85
2023-02-18T06:11:49.681Z,0.80
2023-02-18T06:14:19.379Z,0.90
2023-02-18T06:16:47.363Z,0.70
2023-02-18T06:19:15.376Z,0.80
2023-02-18T06:21:43.343Z,0.70
2023-02-18T06:24:11.334Z,0.95
2023-02-18T06:26:39.325Z,0.90
2023-02-18T06:29:07.461Z,0.70
2023-02-18T06:31:36.848Z,0.70
2023-02-18T06:34:04.885Z,0.77
2023-02-18T06:36:32.839Z,0.77
2023-02-18T06:39:00.855Z,0.63
2023-02-18T06:41:28.763Z,0.70
2023-02-18T06:43:56.839Z,0.65
2023-02-18T06:46:24.943Z,0.80
2023-02-18T06:48:54.264Z,0.80
2023-02-18T06:51:22.201Z,0.70
2023-02-18T06:53:50.150Z,0.60
2023-02-18T06:56:18.389Z,0.70
2023-02-18T06:58:46.301Z,0.80
2023-02-18T07:01:14.444Z,0.43
2023-02-18T07:03:42.467Z,0.50
2023-02-18T07:06:11.992Z,0.47
2023-02-18T07:08:39.973Z,0.60
2023-02-18T07:11:08.261Z,0.20
2023-02-18T07:13:36.288Z,0.40
2023-02-18T07:16:04.440Z,0.30
2023-02-18T07:18:32.461Z,0.40
2023-02-18T07:21:00.408Z,0.60
2023-02-18T07:23:29.716Z,0.32
2023-02-18T07:26:05.904Z,0.43
2023-02-18T07:28:33.963Z,0.50
2023-02-18T07:31:02.407Z,0.40
2023-02-18T07:33:30.412Z,0.40
2023-02-18T07:36:00.778Z,0.57
2023-02-18T07:38:30.360Z,0.35
2023-02-18T07:40:59.561Z,0.50
2023-02-18T07:43:27.614Z,0.60
2023-02-18T07:45:56.188Z,0.45
2023-02-18T07:48:24.260Z,0.50
2023-02-18T07:50:52.236Z,0.50
2023-02-18T07:53:20.246Z,0.40
2023-02-18T07:55:52.415Z,0.60
2023-02-18T07:58:21.979Z,0.40
2023-02-18T08:00:50.787Z,0.52
2023-02-18T08:03:19.713Z,0.52
2023-02-18T08:05:51.097Z,0.40
2023-02-18T08:08:21.335Z,0.47
2023-02-18T08:10:51.863Z,0.40
2023-02-18T08:13:19.863Z,0.50
2023-02-18T08:15:47.752Z,0.70
2023-02-18T08:18:17.872Z,0.40
2023-02-18T08:20:47.281Z,0.45
2023-02-18T08:23:16.402Z,0.40
2023-02-18T08:25:48.732Z,0.50
2023-02-18T08:28:20.101Z,0.70
2023-02-18T08:30:49.163Z,0.60
2023-02-18T08:33:17.813Z,0.40
2023-02-18T08:35:46.400Z,0.40
2023-02-18T08:38:14.493Z,0.50
2023-02-18T08:40:42.533Z,0.50
2023-02-18T08:43:10.887Z,0.70
2023-02-18T08:45:40.223Z,0.47
2023-02-18T08:48:17.284Z,0.50
2023-02-18T08:50:48.719Z,0.60
2023-02-18T08:53:17.321Z,0.70
2023-02-18T08:55:46.526Z,0.57
2023-02-18T08:58:14.841Z,0.57
2023-02-18T09:00:45.624Z,0.60
2023-02-18T09:03:14.986Z,0.80
2023-02-18T09:05:43.248Z,0.57
2023-02-18T09:08:11.176Z,0.68
2023-02-18T09:10:39.676Z,0.68
2023-02-18T09:13:07.664Z,0.57
2023-02-18T09:15:35.988Z,0.70
2023-02-18T09:18:05.632Z,0.70
2023-02-18T09:20:33.596Z,0.50
2023-02-18T09:23:03.610Z,1.15
2023-02-18T09:25:31.633Z,0.80
2023-02-18T09:27:59.551Z,0.68
2023-02-18T09:30:27.564Z,0.60
2023-02-18T09:32:56.779Z,0.70
2023-02-18T09:35:26.109Z,0.80
2023-02-18T09:37:54.020Z,0.73
2023-02-18T09:40:28.647Z,0.63
2023-02-18T09:42:58.265Z,1.00
2023-02-18T09:45:26.818Z,0.70
2023-02-18T09:47:55.244Z,0.70
2023-02-18T09:50:28.013Z,0.70
2023-02-18T09:52:57.033Z,0.85
2023-02-18T09:55:29.170Z,0.90
2023-02-18T09:58:00.431Z,0.80
2023-02-18T10:00:33.613Z,0.65
2023-02-18T10:03:06.829Z,0.80
2023-02-18T10:05:37.775Z,0.90
2023-02-18T10:08:08.716Z,0.73
2023-02-18T10:10:40.715Z,0.90
2023-02-18T10:13:14.935Z,0.75
2023-02-18T10:15:44.304Z,0.70
2023-02-18T10:18:26.403Z,0.50
2023-02-18T10:21:02.020Z,0.75
2023-02-18T10:23:32.432Z,0.70
2023-02-18T10:26:02.282Z,0.55
2023-02-18T10:28:30.699Z,0.82
2023-02-18T10:31:03.188Z,0.50
2023-02-18T10:33:37.020Z,0.73
2023-02-18T10:36:22.916Z,0.80
2023-02-18T10:39:07.628Z,0.80
2023-02-18T10:41:42.500Z,0.60
2023-02-18T10:44:20.128Z,0.80
2023-02-18T10:47:01.073Z,0.80
2023-02-18T10:49:56.504Z,0.63
2023-02-18T10:52:27.931Z,0.50
2023-02-18T10:55:01.361Z,0.63
2023-02-18T11:00:10.571Z,0.60
2023-02-18T11:02:40.369Z,0.82
2023-02-18T11:05:20.557Z,0.50
2023-02-18T11:07:52.957Z,0.90
2023-02-18T11:10:25.779Z,0.80
2023-02-18T11:12:58.416Z,0.70
2023-02-18T11:15:28.060Z,0.70
2023-02-18T11:17:59.534Z,0.60
2023-02-18T11:20:31.620Z,0.90
2023-02-18T11:23:19.634Z,0.80
2023-02-18T11:26:01.321Z,0.80
2023-02-18T11:28:45.924Z,0.75
2023-02-18T11:31:21.954Z,0.90
2023-02-18T11:33:52.803Z,0.60
2023-02-18T11:36:25.213Z,0.68
2023-02-18T11:38:57.939Z,0.57
2023-02-18T11:41:33.413Z,0.80
2023-02-18T11:44:02.620Z,0.60
2023-02-18T11:46:30.637Z,0.70
2023-02-18T11:49:20.875Z,0.75
2023-02-18T11:51:50.416Z,0.80
2023-02-18T11:54:27.244Z,0.65
2023-02-18T11:57:01.179Z,0.55
2023-02-18T11:59:33.134Z,0.60
2023-02-18T12:02:07.299Z,0.73
2023-02-18T12:04:41.908Z,0.50
2023-02-18T12:07:20.230Z,0.85
2023-02-18T12:09:51.710Z,0.50
2023-02-18T12:12:26.038Z,0.77
2023-02-18T12:14:56.443Z,0.55
2023-02-18T12:17:40.368Z,0.75
2023-02-18T12:20:23.272Z,0.70
2023-02-18T12:23:00.545Z,0.70
2023-02-18T12:25:41.639Z,0.45
2023-02-18T12:28:22.363Z,0.88
2023-02-18T12:31:16.836Z,0.70
2023-02-18T12:33:58.581Z,0.68
2023-02-18T12:36:34.451Z,0.68
2023-02-18T12:39:11.719Z,0.70
2023-02-18T12:42:01.353Z,0.70
2023-02-18T12:44:57.637Z,0.77
2023-02-18T12:47:37.897Z,0.65
2023-02-18T12:50:41.572Z,0.60
2023-02-18T12:53:32.702Z,0.73
2023-02-18T12:56:14.799Z,0.80
2023-02-18T12:58:55.387Z,0.85
2023-02-18T13:01:34.807Z,0.90
2023-02-18T13:04:25.418Z,0.50
2023-02-18T13:07:24.703Z,0.80
2023-02-18T13:10:21.325Z,0.60
2023-02-18T13:12:55.568Z,0.93
2023-02-18T13:15:34.779Z,0.57
2023-02-18T13:18:09.932Z,0.68
2023-02-18T13:20:41.683Z,0.70
2023-02-18T13:23:17.754Z,0.55
2023-02-18T13:25:49.639Z,0.88
2023-02-18T13:28:24.151Z,0.60
2023-02-18T13:31:04.372Z,1.00
2023-02-18T13:33:40.238Z,0.70
2023-02-18T13:36:15.477Z,0.75
2023-02-18T13:39:01.445Z,0.55
2023-02-18T13:41:29.514Z,0.60
2023-02-18T13:43:57.429Z,0.70
2023-02-18T13:46:28.213Z,0.68
2023-02-18T13:49:05.393Z,0.63
2023-02-18T13:51:35.299Z,0.60
2023-02-18T13:54:08.707Z,0.90
2023-02-18T13:59:12.882Z,0.80
2023-02-18T14:01:46.306Z,0.90
2023-02-18T14:07:45.370Z,0.80
2023-02-18T14:10:43.412Z,0.93
2023-02-18T14:13:24.939Z,1.00
2023-02-18T14:16:00.100Z,0.80
2023-02-18T14:18:47.297Z,0.60
2023-02-18T14:21:24.379Z,0.90
2023-02-18T14:24:06.135Z,0.68
2023-02-18T14:26:40.046Z,1.00
2023-02-18T14:29:13.643Z,0.90
2023-02-18T14:31:51.986Z,1.00
2023-02-18T14:34:57.134Z,0.82
2023-02-18T14:38:02.505Z,1.00
2023-02-18T14:40:51.923Z,1.00
2023-02-18T14:43:40.945Z,1.00
2023-02-18T14:46:26.457Z,1.00
2023-02-18T14:49:14.471Z,0.85
2023-02-18T14:51:47.995Z,0.80
2023-02-18T14:54:20.286Z,0.90
2023-02-18T14:57:01.497Z,0.98
2023-02-18T14:59:32.031Z,1.00
2023-02-18T15:01:59.954Z,0.90
2023-02-18T15:04:28.686Z,0.82
2023-02-18T15:07:02.625Z,1.10
2023-02-18T15:09:30.682Z,0.98
2023-02-18T15:12:02.275Z,1.00
2023-02-18T15:14:33.239Z,0.80
2023-02-18T15:17:02.829Z,0.85
2023-02-18T15:19:40.812Z,1.00
2023-02-18T15:22:18.368Z,0.85
2023-02-18T15:24:46.829Z,0.70
2023-02-18T15:27:17.544Z,0.80
2023-02-18T15:29:45.570Z,0.85
2023-02-18T15:32:19.238Z,0.82
2023-02-18T15:34:50.414Z,0.90
2023-02-18T15:37:20.313Z,0.90
2023-02-18T15:39:48.704Z,0.50
2023-02-18T15:42:25.970Z,0.60
2023-02-18T15:44:58.383Z,0.70
2023-02-18T15:47:27.871Z,0.68
2023-02-18T15:49:57.778Z,0.50
2023-02-18T15:52:29.500Z,0.57
2023-02-18T15:55:02.321Z,0.60
2023-02-18T15:57:31.663Z,0.52
2023-02-18T16:00:06.600Z,0.60
2023-02-18T16:02:35.111Z,0.70
2023-02-18T16:05:05.431Z,0.60
2023-02-18T16:07:51.965Z,0.70
2023-02-18T16:10:24.805Z,0.50
2023-02-18T16:12:56.008Z,0.43
2023-02-18T16:15:27.428Z,0.50
2023-02-18T16:17:55.917Z,0.50
2023-02-18T16:20:31.503Z,0.50
2023-02-18T16:23:04.211Z,0.60
2023-02-18T16:25:44.508Z,0.70
2023-02-18T16:28:17.745Z,0.60
2023-02-18T16:30:46.533Z,0.63
2023-02-18T16:33:14.730Z,0.60
2023-02-18T16:35:49.999Z,0.68
2023-02-18T16:38:22.083Z,0.70
2023-02-18T16:40:55.353Z,0.57
2023-02-18T16:43:25.570Z,0.60
2023-02-18T16:45:56.386Z,0.60
2023-02-18T16:48:30.116Z,0.60
2023-02-18T16:51:02.417Z,0.50
2023-02-18T16:53:31.789Z,0.50
2023-02-18T16:56:00.912Z,0.70
2023-02-18T16:58:28.855Z,0.50
2023-02-18T17:00:57.075Z,0.80
2023-02-18T17:03:25.239Z,1.20
2023-02-18T17:05:53.163Z,0.93
2023-02-18T17:08:23.239Z,0.93
2023-02-18T17:10:55.673Z,0.60
2023-02-18T17:13:25.716Z,0.80
2023-02-18T17:15:55.803Z,0.70
2023-02-18T17:18:24.809Z,0.70
2023-02-18T17:20:54.375Z,0.50
2023-02-18T17:23:24.529Z,0.52
2023-02-18T17:25:54.479Z,0.60
2023-02-18T17:28:23.144Z,0.80
2023-02-18T17:30:57.750Z,0.65
2023-02-18T17:33:26.355Z,1.00
2023-02-18T17:35:54.690Z,1.35
2023-02-18T17:38:22.665Z,0.75
2023-02-18T17:40:50.959Z,0.90
2023-02-18T17:43:20.445Z,0.75
2023-02-18T17:45:51.454Z,0.93
2023-02-18T17:48:19.600Z,0.50
2023-02-18T17:50:47.916Z,0.60
2023-02-18T17:53:16.705Z,0.80
2023-02-18T17:55:46.023Z,0.70
2023-02-18T17:58:14.663Z,0.70
2023-02-18T18:00:45.829Z,0.60
2023-02-18T18:03:14.694Z,0.82
2023-02-18T18:05:48.062Z,0.90
2023-02-18T18:08:16.971Z,0.63
2023-02-18T18:10:50.301Z,0.77
2023-02-18T18:13:22.399Z,0.98
2023-02-18T18:15:52.708Z,0.90
2023-02-18T18:18:20.996Z,1.00
2023-02-18T18:20:51.735Z,0.90
2023-02-18T18:23:21.222Z,0.80
2023-02-18T18:25:51.544Z,0.70
2023-02-18T18:28:20.322Z,1.08
2023-02-18T18:30:49.942Z,0.88
2023-02-18T18:33:21.582Z,0.80
2023-02-18T18:35:51.837Z,1.00
2023-02-18T18:38:21.601Z,0.90
2023-02-18T18:40:50.273Z,0.80
2023-02-18T18:43:21.022Z,0.77
2023-02-18T18:45:49.745Z,0.90
2023-02-18T18:48:20.138Z,0.70
2023-02-18T18:50:48.656Z,0.90
2023-02-18T18:53:19.865Z,0.80
2023-02-18T18:55:48.364Z,0.80
2023-02-18T18:58:20.457Z,0.75
2023-02-18T19:00:51.573Z,0.90
2023-02-18T19:03:24.177Z,0.90
2023-02-18T19:05:53.007Z,0.80
2023-02-18T19:08:21.153Z,0.95
2023-02-18T19:10:50.820Z,0.90
2023-02-18T19:13:21.398Z,0.88
2023-02-18T19:15:51.157Z,0.90
2023-02-18T19:18:22.049Z,0.90
2023-02-18T19:20:50.015Z,0.90
2023-02-18T19:23:17.957Z,1.00
2023-02-18T19:25:45.936Z,0.90
2023-02-18T19:28:14.553Z,0.95
2023-02-18T19:30:43.470Z,0.93
2023-02-18T19:33:13.911Z,1.00
2023-02-18T19:35:44.050Z,1.10
2023-02-18T19:38:13.919Z,0.80
2023-02-18T19:40:42.390Z,0.82
2023-02-18T19:43:10.804Z,0.95
2023-02-18T19:45:43.898Z,0.80
2023-02-18T19:48:12.874Z,0.90
2023-02-18T19:50:43.252Z,1.10
2023-02-18T19:53:12.130Z,1.00
2023-02-18T19:55:40.159Z,0.95
2023-02-18T19:58:08.429Z,0.93
2023-02-18T20:00:36.413Z,1.25
2023-02-18T20:03:04.349Z,0.80
2023-02-18T20:05:32.248Z,0.93
2023-02-18T20:08:01.522Z,0.73
2023-02-18T20:10:29.450Z,0.90
2023-02-18T20:12:57.340Z,0.77
2023-02-18T20:15:25.401Z,1.25
2023-02-18T20:17:53.391Z,0.80
2023-02-18T20:20:21.477Z,1.00
2023-02-18T20:22:49.406Z,0.80
2023-02-18T20:25:18.914Z,0.93
2023-02-18T20:27:59.847Z,1.10
2023-02-18T20:30:28.716Z,0.98
2023-02-18T20:32:56.645Z,0.98
2023-02-18T20:35:24.565Z,1.00
2023-02-18T20:37:52.564Z,1.00
2023-02-18T20:40:21.909Z,1.00
2023-02-18T20:42:49.853Z,0.98
2023-02-18T20:45:17.918Z,1.17
2023-02-18T20:47:45.854Z,1.00
2023-02-18T20:50:13.752Z,1.30
2023-02-18T20:52:41.619Z,0.90
2023-02-18T20:55:09.645Z,1.05
2023-02-18T20:57:38.931Z,1.02
2023-02-18T21:00:08.291Z,1.02
2023-02-18T21:02:36.341Z,1.10
2023-02-18T21:05:04.456Z,1.13
2023-02-18T21:07:32.414Z,1.00
2023-02-18T21:10:00.300Z,0.90
2023-02-18T21:12:28.202Z,1.10
2023-02-18T21:14:57.456Z,1.00
2023-02-18T21:17:25.368Z,1.20
2023-02-18T21:19:53.296Z,1.00
2023-02-18T21:22:21.320Z,0.85
2023-02-18T21:24:52.004Z,0.93
2023-02-18T21:27:20.007Z,1.00
2023-02-18T21:29:47.910Z,0.95
2023-02-18T21:32:17.272Z,1.00
2023-02-18T21:34:45.285Z,0.90
2023-02-18T21:37:13.215Z,0.98
2023-02-18T21:39:41.145Z,1.20
2023-02-18T21:42:09.060Z,1.10
2023-02-18T21:44:42.217Z,0.90
2023-02-18T21:47:11.369Z,0.98
2023-02-18T21:49:40.598Z,0.90
2023-02-18T21:52:11.204Z,1.10
2023-02-18T21:54:41.113Z,1.13
2023-02-18T21:57:11.927Z,1.00
2023-02-18T21:59:40.677Z,0.90
2023-02-18T22:02:15.452Z,1.23
2023-02-18T22:04:44.848Z,1.17
2023-02-18T22:07:13.172Z,1.10
2023-02-18T22:09:41.435Z,1.13
2023-02-18T22:12:09.585Z,0.93
2023-02-18T22:14:37.501Z,0.98
2023-02-18T22:17:05.429Z,1.10
2023-02-18T22:19:35.701Z,1.00
2023-02-18T22:22:05.152Z,0.90
2023-02-18T22:24:33.534Z,0.98
2023-02-18T22:27:02.293Z,1.10
2023-02-18T22:29:31.499Z,1.00
2023-02-18T22:31:59.487Z,0.90
2023-02-18T22:34:27.655Z,1.10
2023-02-18T22:36:55.570Z,1.10
2023-02-18T22:39:26.400Z,1.25
2023-02-18T22:41:54.402Z,1.27
2023-02-18T22:44:23.018Z,1.17
2023-02-18T22:46:51.392Z,1.20
2023-02-18T22:49:19.313Z,0.98
2023-02-18T22:51:47.334Z,1.13
2023-02-18T22:54:16.915Z,0.80
2023-02-18T22:56:47.568Z,1.27
2023-02-18T22:59:18.446Z,1.17
2023-02-18T23:01:49.726Z,1.05
2023-02-18T23:04:19.733Z,1.10
2023-02-18T23:06:48.591Z,0.95
2023-02-18T23:09:19.180Z,1.20
2023-02-18T23:11:51.264Z,1.10
2023-02-18T23:14:19.497Z,1.20
2023-02-18T23:17:06.436Z,0.95
2023-02-18T23:19:36.231Z,1.15
2023-02-18T23:22:04.509Z,1.30
2023-02-18T23:24:34.257Z,1.10
2023-02-18T23:27:04.377Z,1.10
2023-02-18T23:29:32.875Z,1.35
2023-02-18T23:32:01.033Z,1.15
2023-02-18T23:34:29.464Z,1.10
2023-02-18T23:36:58.656Z,1.05
2023-02-18T23:39:27.162Z,1.08
2023-02-18T23:41:55.138Z,1.40
2023-02-18T23:44:26.099Z,1.33
2023-02-18T23:46:54.358Z,1.38
2023-02-18T23:49:24.335Z,1.70
2023-02-18T23:51:53.921Z,1.25
2023-02-18T23:54:22.787Z,1.23
2023-02-18T23:56:50.721Z,1.50
2023-02-18T23:59:18.896Z,1.27
